createdAt,value
2018-03-30T00:00:09.034Z,72.30
2018-03-30T00:02:36.513Z,71.80
2018-03-30T00:05:03.994Z,72.10
2018-03-30T00:07:31.485Z,73.20
2018-03-30T00:09:58.987Z,72.40
2018-03-30T00:12:26.450Z,72.80
2018-03-30T00:14:54.702Z,72.90
2018-03-30T00:17:22.196Z,72.80
2018-03-30T00:19:50.478Z,72.70
2018-03-30T00:22:17.948Z,72.50
2018-03-30T00:24:45.458Z,72.00
2018-03-30T00:27:12.953Z,72.80
2018-03-30T00:29:41.214Z,72.40
2018-03-30T00:32:09.475Z,72.80
2018-03-30T00:34:36.962Z,72.70
2018-03-30T00:37:04.466Z,72.90
2018-03-30T00:39:32.014Z,72.60
2018-03-30T00:41:59.488Z,73.00
2018-03-30T00:44:26.984Z,72.80
2018-03-30T00:46:55.257Z,73.60
2018-03-30T00:49:23.503Z,73.00
2018-03-30T00:51:51.029Z,72.80
2018-03-30T00:54:18.502Z,72.10
2018-03-30T00:56:45.985Z,70.80
2018-03-30T00:59:13.469Z,71.90
2018-03-30T01:01:41.707Z,73.20
2018-03-30T01:04:09.249Z,73.10
2018-03-30T01:06:36.735Z,72.70
2018-03-30T01:09:04.233Z,72.60
2018-03-30T01:11:31.750Z,73.40
2018-03-30T01:13:59.220Z,72.50
2018-03-30T01:16:26.720Z,72.60
2018-03-30T01:18:54.224Z,71.80
2018-03-30T01:21:21.697Z,71.60
2018-03-30T01:23:49.191Z,70.90
2018-03-30T01:26:16.691Z,72.40
2018-03-30T01:28:44.159Z,71.60
2018-03-30T01:31:11.710Z,72.20
2018-03-30T01:33:39.200Z,71.80
2018-03-30T01:36:07.446Z,72.60
2018-03-30T01:38:34.935Z,72.40
2018-03-30T01:41:03.211Z,72.00
2018-03-30T01:43:31.492Z,72.50
2018-03-30T01:45:59.742Z,73.20
2018-03-30T01:48:27.222Z,73.20
2018-03-30T01:50:55.482Z,73.40
2018-03-30T01:53:23.760Z,72.80
2018-03-30T01:55:51.254Z,72.80
2018-03-30T01:58:18.721Z,73.10
2018-03-30T02:00:46.213Z,73.10
2018-03-30T02:03:14.390Z,73.60
2018-03-30T02:05:41.863Z,73.60
2018-03-30T02:08:09.357Z,74.60
2018-03-30T02:10:36.844Z,74.00
2018-03-30T02:13:04.322Z,74.70
2018-03-30T02:15:31.804Z,74.80
2018-03-30T02:17:59.281Z,74.60
2018-03-30T02:20:27.521Z,74.70
2018-03-30T02:22:55.009Z,74.70
2018-03-30T02:25:23.254Z,74.60
2018-03-30T02:27:50.745Z,74.60
2018-03-30T02:30:18.982Z,74.20
2018-03-30T02:32:46.454Z,74.20
2018-03-30T02:35:13.913Z,74.30
2018-03-30T02:37:41.750Z,74.70
2018-03-30T02:40:09.214Z,74.50
2018-03-30T02:42:36.686Z,74.40
2018-03-30T02:45:04.137Z,74.90
2018-03-30T02:47:31.611Z,75.70
2018-03-30T02:49:59.092Z,75.20
2018-03-30T02:52:27.321Z,74.80
2018-03-30T02:54:54.776Z,74.80
2018-03-30T02:57:22.260Z,75.00
2018-03-30T02:59:49.718Z,75.10
2018-03-30T03:02:17.211Z,74.90
2018-03-30T03:04:44.682Z,74.40
2018-03-30T03:07:12.160Z,74.20
2018-03-30T03:09:39.625Z,74.80
2018-03-30T03:12:07.102Z,74.10
2018-03-30T03:14:34.561Z,74.50
2018-03-30T03:17:02.060Z,75.00
2018-03-30T03:19:29.532Z,74.60
2018-03-30T03:21:57.023Z,73.50
2018-03-30T03:24:24.492Z,74.40
2018-03-30T03:26:51.968Z,74.10
2018-03-30T03:29:20.206Z,73.60
2018-03-30T03:31:47.662Z,73.60
2018-03-30T03:34:15.182Z,73.00
2018-03-30T03:36:42.668Z,72.70
2018-03-30T03:39:10.165Z,72.90
2018-03-30T03:41:37.624Z,73.60
2018-03-30T03:44:05.112Z,74.10
2018-03-30T03:46:32.675Z,74.70
2018-03-30T03:49:00.157Z,74.40
2018-03-30T03:51:27.625Z,74.90
2018-03-30T03:53:55.094Z,75.00
2018-03-30T03:56:22.558Z,75.10
2018-03-30T03:58:50.023Z,75.30
2018-03-30T04:01:17.479Z,74.20
2018-03-30T04:03:44.945Z,74.80
2018-03-30T04:06:12.460Z,74.20
2018-03-30T04:08:39.939Z,74.80
2018-03-30T04:11:07.404Z,75.20
2018-03-30T04:13:34.893Z,74.90
2018-03-30T04:16:03.146Z,74.80
2018-03-30T04:18:30.622Z,74.80
2018-03-30T04:20:58.841Z,72.80
2018-03-30T04:23:26.312Z,72.70
2018-03-30T04:25:53.824Z,72.70
2018-03-30T04:28:21.307Z,74.20
2018-03-30T04:30:48.800Z,74.70
2018-03-30T04:33:16.252Z,75.50
2018-03-30T04:35:43.732Z,75.40
2018-03-30T04:38:11.963Z,75.50
2018-03-30T04:40:39.458Z,75.40
2018-03-30T04:43:06.919Z,75.70
2018-03-30T04:45:34.376Z,75.70
2018-03-30T04:48:01.861Z,75.90
2018-03-30T04:50:30.098Z,76.80
2018-03-30T04:52:57.574Z,76.80
2018-03-30T04:55:25.803Z,75.50
2018-03-30T04:57:53.266Z,75.30
2018-03-30T05:00:21.500Z,74.30
2018-03-30T05:02:48.961Z,74.30
2018-03-30T05:05:16.450Z,75.10
2018-03-30T05:07:43.940Z,76.00
2018-03-30T05:10:11.425Z,76.00
2018-03-30T05:12:39.648Z,75.90
2018-03-30T05:15:07.111Z,75.80
2018-03-30T05:17:34.573Z,75.30
2018-03-30T05:20:02.051Z,75.60
2018-03-30T05:22:29.509Z,74.30
2018-03-30T05:24:57.001Z,74.00
2018-03-30T05:27:24.463Z,74.10
2018-03-30T05:29:51.967Z,74.40
2018-03-30T05:32:19.443Z,75.00
2018-03-30T05:34:46.902Z,75.10
2018-03-30T05:37:14.380Z,74.60
2018-03-30T05:39:42.700Z,75.00
2018-03-30T05:42:10.139Z,74.90
2018-03-30T05:44:37.588Z,75.70
2018-03-30T05:47:05.064Z,75.80
2018-03-30T05:49:32.524Z,76.10
2018-03-30T05:52:00.000Z,75.80
2018-03-30T05:54:27.489Z,75.90
2018-03-30T05:56:54.962Z,76.00
2018-03-30T05:59:23.204Z,74.70
2018-03-30T06:01:50.696Z,74.70
2018-03-30T06:04:18.169Z,74.30
2018-03-30T06:06:45.624Z,74.60
2018-03-30T06:09:13.075Z,73.60
2018-03-30T06:11:40.549Z,74.50
2018-03-30T06:14:08.014Z,74.00
2018-03-30T06:16:35.480Z,74.10
2018-03-30T06:19:02.987Z,74.30
2018-03-30T06:21:30.425Z,74.30
2018-03-30T06:23:57.903Z,74.60
2018-03-30T06:26:26.190Z,75.80
2018-03-30T06:28:54.447Z,75.10
2018-03-30T06:31:21.890Z,75.00
2018-03-30T06:33:50.213Z,75.60
2018-03-30T06:36:17.695Z,74.90
2018-03-30T06:38:45.167Z,74.90
2018-03-30T06:41:12.672Z,74.80
2018-03-30T06:43:40.900Z,75.40
2018-03-30T06:46:09.116Z,76.00
2018-03-30T06:48:37.368Z,75.30
2018-03-30T06:51:04.848Z,75.20
2018-03-30T06:53:32.334Z,75.80
2018-03-30T06:55:59.839Z,76.40
2018-03-30T06:58:27.321Z,75.30
2018-03-30T07:00:55.547Z,75.40
2018-03-30T07:03:23.024Z,75.40
2018-03-30T07:05:50.473Z,74.80
2018-03-30T07:08:17.981Z,73.20
2018-03-30T07:10:45.433Z,72.20
2018-03-30T07:13:14.425Z,72.10
2018-03-30T07:15:42.665Z,72.00
2018-03-30T07:18:10.182Z,72.00
2018-03-30T07:20:38.270Z,71.90
2018-03-30T07:23:05.777Z,71.60
2018-03-30T07:25:33.255Z,69.40
2018-03-30T07:28:01.656Z,69.70
2018-03-30T07:30:29.253Z,69.10
2018-03-30T07:32:56.839Z,68.10
2018-03-30T07:35:25.144Z,70.40
2018-03-30T07:37:52.712Z,70.40
2018-03-30T07:40:20.235Z,66.20
2018-03-30T07:42:47.769Z,66.40
2018-03-30T07:45:15.350Z,65.60
2018-03-30T07:47:43.000Z,64.80
2018-03-30T07:50:10.558Z,64.40
2018-03-30T07:52:38.158Z,64.80
2018-03-30T07:55:06.463Z,60.60
2018-03-30T07:57:34.028Z,60.60
2018-03-30T08:00:01.564Z,58.00
2018-03-30T08:02:29.149Z,56.90
2018-03-30T08:04:56.697Z,57.50
2018-03-30T08:07:24.202Z,55.70
2018-03-30T08:09:51.767Z,54.20
2018-03-30T08:12:19.347Z,54.00
2018-03-30T08:14:47.694Z,50.00
2018-03-30T08:17:15.263Z,50.00
2018-03-30T08:19:42.812Z,48.90
2018-03-30T08:22:10.365Z,46.00
2018-03-30T08:24:37.914Z,43.90
2018-03-30T08:27:05.416Z,44.40
2018-03-30T08:29:32.907Z,46.60
2018-03-30T08:32:00.377Z,45.60
2018-03-30T08:34:27.849Z,45.80
2018-03-30T08:36:55.379Z,46.60
2018-03-30T08:39:23.151Z,42.30
2018-03-30T08:41:50.708Z,42.60
2018-03-30T08:44:18.249Z,41.00
2018-03-30T08:46:45.734Z,40.40
2018-03-30T08:49:13.260Z,38.50
2018-03-30T08:51:42.295Z,38.80
2018-03-30T08:54:09.834Z,39.10
2018-03-30T08:56:37.406Z,38.30
2018-03-30T08:59:04.930Z,37.70
2018-03-30T09:01:32.460Z,37.60
2018-03-30T09:04:00.020Z,37.20
2018-03-30T09:06:27.581Z,36.20
2018-03-30T09:08:55.179Z,36.90
2018-03-30T09:11:22.699Z,35.50
2018-03-30T09:13:50.314Z,35.90
2018-03-30T09:16:17.866Z,36.70
2018-03-30T09:18:45.454Z,35.00
2018-03-30T09:21:13.015Z,36.30
2018-03-30T09:23:40.587Z,34.90
2018-03-30T09:26:08.141Z,36.70
2018-03-30T09:28:35.714Z,37.70
2018-03-30T09:31:03.261Z,35.50
2018-03-30T09:33:30.799Z,34.20
2018-03-30T09:35:58.321Z,35.60
2018-03-30T09:38:26.610Z,35.80
2018-03-30T09:40:54.152Z,35.70
2018-03-30T09:43:22.462Z,34.90
2018-03-30T09:45:50.803Z,34.80
2018-03-30T09:48:19.071Z,36.80
2018-03-30T09:50:47.122Z,36.80
2018-03-30T09:53:15.549Z,38.10
2018-03-30T09:55:43.113Z,39.40
2018-03-30T09:58:10.635Z,38.70
2018-03-30T10:00:38.151Z,39.60
2018-03-30T10:03:05.687Z,39.40
2018-03-30T10:05:38.484Z,38.90
2018-03-30T10:08:06.018Z,38.80
2018-03-30T10:10:33.525Z,39.30
2018-03-30T10:13:01.019Z,40.90
2018-03-30T10:15:28.491Z,41.10
2018-03-30T10:17:56.960Z,42.90
2018-03-30T10:20:25.213Z,41.30
2018-03-30T10:22:52.727Z,41.30
2018-03-30T10:25:20.248Z,42.30
2018-03-30T10:27:47.774Z,43.50
2018-03-30T10:30:15.312Z,44.70
2018-03-30T10:32:42.877Z,44.70
2018-03-30T10:35:10.385Z,46.00
2018-03-30T10:37:37.933Z,47.50
2018-03-30T10:40:05.477Z,47.30
2018-03-30T10:42:32.999Z,47.70
2018-03-30T10:45:00.536Z,48.40
2018-03-30T10:47:28.817Z,48.80
2018-03-30T10:49:57.108Z,48.80
2018-03-30T10:52:24.630Z,48.80
2018-03-30T10:54:52.149Z,47.60
2018-03-30T10:57:19.732Z,47.80
2018-03-30T10:59:47.252Z,47.40
2018-03-30T11:02:14.763Z,49.20
2018-03-30T11:04:42.270Z,48.60
2018-03-30T11:07:09.801Z,49.40
2018-03-30T11:09:38.090Z,50.50
2018-03-30T11:12:06.382Z,51.10
2018-03-30T11:14:33.882Z,51.10
2018-03-30T11:17:01.410Z,51.20
2018-03-30T11:19:28.960Z,51.10
2018-03-30T11:21:56.539Z,50.70
2018-03-30T11:24:24.065Z,50.80
2018-03-30T11:26:52.356Z,49.60
2018-03-30T11:29:20.456Z,49.60
2018-03-30T11:31:48.626Z,50.70
2018-03-30T11:34:16.146Z,50.80
2018-03-30T11:36:43.689Z,49.60
2018-03-30T11:39:12.025Z,50.60
2018-03-30T11:41:39.542Z,50.50
2018-03-30T11:44:07.112Z,49.30
2018-03-30T11:46:34.637Z,49.80
2018-03-30T11:49:02.157Z,48.80
2018-03-30T11:51:29.677Z,48.40
2018-03-30T11:53:57.966Z,49.90
2018-03-30T11:56:25.479Z,49.80
2018-03-30T11:58:53.046Z,49.10
2018-03-30T12:01:21.313Z,48.10
2018-03-30T12:03:49.115Z,48.00
2018-03-30T12:06:17.417Z,50.30
2018-03-30T12:08:44.972Z,50.30
2018-03-30T12:11:12.481Z,47.50
2018-03-30T12:13:40.005Z,47.30
2018-03-30T12:16:07.537Z,45.80
2018-03-30T12:18:35.100Z,48.00
2018-03-30T12:21:02.634Z,46.70
2018-03-30T12:23:30.914Z,46.40
2018-03-30T12:25:59.206Z,46.30
2018-03-30T12:28:26.748Z,46.30
2018-03-30T12:30:55.013Z,46.90
2018-03-30T12:33:22.692Z,46.80
2018-03-30T12:35:51.096Z,46.30
2018-03-30T12:38:18.600Z,46.30
2018-03-30T12:40:46.137Z,47.10
2018-03-30T12:43:14.192Z,47.60
2018-03-30T12:45:41.733Z,48.20
2018-03-30T12:48:09.227Z,48.50
2018-03-30T12:50:36.780Z,47.20
2018-03-30T12:53:04.309Z,46.90
2018-03-30T12:55:31.895Z,48.00
2018-03-30T12:57:59.407Z,46.80
2018-03-30T13:00:27.746Z,49.30
2018-03-30T13:02:55.255Z,49.20
2018-03-30T13:05:22.774Z,49.20
2018-03-30T13:07:50.345Z,46.60
2018-03-30T13:10:17.889Z,47.70
2018-03-30T13:12:45.414Z,48.20
2018-03-30T13:15:12.952Z,48.60
2018-03-30T13:17:41.710Z,48.50
2018-03-30T13:20:10.986Z,48.40
2018-03-30T13:22:39.840Z,48.80
2018-03-30T13:25:07.376Z,49.70
2018-03-30T13:27:34.907Z,48.90
2018-03-30T13:30:02.458Z,49.50
2018-03-30T13:32:29.992Z,50.50
2018-03-30T13:34:57.509Z,49.80
2018-03-30T13:37:25.801Z,49.80
2018-03-30T13:39:54.050Z,50.00
2018-03-30T13:42:21.668Z,49.90
2018-03-30T13:44:49.194Z,50.30
2018-03-30T13:47:17.483Z,50.40
2018-03-30T13:49:45.740Z,50.30
2018-03-30T13:55:18.006Z,50.20
2018-03-30T13:57:45.510Z,49.30
2018-03-30T14:00:18.329Z,49.50
2018-03-30T14:06:01.441Z,49.50
2018-03-30T14:08:28.948Z,50.40
2018-03-30T14:10:56.414Z,50.20
2018-03-30T14:13:23.934Z,50.80
2018-03-30T14:15:51.409Z,51.10
2018-03-30T14:18:19.807Z,51.80
2018-03-30T14:20:47.290Z,51.70
2018-03-30T14:23:17.459Z,51.20
2018-03-30T14:25:51.504Z,52.10
2018-03-30T14:28:20.938Z,52.40
2018-03-30T14:30:51.932Z,52.80
2018-03-30T14:33:32.847Z,52.70
2018-03-30T14:49:40.226Z,52.50
2018-03-30T14:52:10.478Z,52.00
2018-03-30T14:54:41.817Z,52.00
2018-03-30T14:57:22.971Z,52.00
2018-03-30T15:03:14.894Z,52.60
2018-03-30T15:05:46.010Z,53.70
2018-03-30T15:08:20.915Z,53.00
2018-03-30T15:11:04.245Z,55.50
2018-03-30T15:13:46.678Z,55.80
2018-03-30T15:16:30.621Z,54.90
2018-03-30T15:19:28.788Z,57.20
2018-03-30T15:21:58.900Z,59.00
2018-03-30T15:24:46.154Z,60.00
2018-03-30T15:27:15.245Z,61.50
2018-03-30T15:29:45.472Z,62.80
2018-03-30T15:32:14.424Z,63.90
2018-03-30T15:34:44.375Z,67.40
2018-03-30T15:37:15.249Z,67.40
2018-03-30T15:39:46.655Z,66.10
2018-03-30T15:42:16.900Z,67.20
2018-03-30T15:44:45.294Z,69.40
2018-03-30T15:47:13.611Z,67.40
2018-03-30T15:49:41.894Z,66.50
2018-03-30T15:52:11.021Z,66.30
2018-03-30T15:54:38.564Z,66.90
2018-03-30T15:57:06.047Z,69.10
2018-03-30T15:59:33.672Z,71.00
2018-03-30T16:02:01.154Z,72.20
2018-03-30T16:04:28.643Z,71.50
2018-03-30T16:06:56.128Z,73.20
2018-03-30T16:09:25.735Z,74.60
2018-03-30T16:11:54.600Z,74.70
2018-03-30T16:14:22.117Z,74.60
2018-03-30T16:16:49.572Z,75.60
2018-03-30T16:19:16.561Z,75.10
2018-03-30T16:21:43.575Z,76.00
2018-03-30T16:24:10.585Z,75.20
2018-03-30T16:26:38.330Z,75.20
2018-03-30T16:29:05.309Z,75.10
2018-03-30T16:31:32.300Z,72.20
2018-03-30T16:33:59.278Z,73.90
2018-03-30T16:36:27.057Z,72.90
2018-03-30T16:38:54.789Z,73.80
2018-03-30T16:41:21.780Z,73.80
2018-03-30T16:43:48.772Z,74.70
2018-03-30T16:46:15.820Z,74.60
2018-03-30T16:48:43.229Z,74.60
2018-03-30T16:51:10.330Z,73.70
2018-03-30T16:53:37.296Z,74.40
2018-03-30T16:56:05.066Z,74.80
2018-03-30T16:58:33.035Z,74.60
2018-03-30T17:01:00.785Z,77.00
2018-03-30T17:03:28.008Z,76.90
2018-03-30T17:05:55.011Z,75.20
2018-03-30T17:08:22.786Z,74.00
2018-03-30T17:10:49.837Z,74.00
2018-03-30T17:13:16.829Z,74.80
2018-03-30T17:15:43.894Z,74.80
2018-03-30T17:18:11.647Z,76.60
2018-03-30T17:20:38.686Z,76.60
2018-03-30T17:23:05.685Z,76.60
2018-03-30T17:25:32.677Z,77.10
2018-03-30T17:28:00.677Z,77.70
2018-03-30T17:30:28.430Z,77.20
2018-03-30T17:32:55.408Z,77.10
2018-03-30T17:35:22.495Z,77.20
2018-03-30T17:37:49.498Z,77.10
2018-03-30T17:40:16.563Z,76.80
2018-03-30T17:42:44.037Z,77.20
2018-03-30T17:45:11.041Z,76.50
2018-03-30T17:47:39.169Z,75.00
2018-03-30T17:50:06.249Z,75.00
2018-03-30T17:52:33.277Z,75.40
2018-03-30T17:55:00.358Z,75.00
2018-03-30T17:57:28.307Z,77.10
2018-03-30T17:59:55.341Z,77.00
2018-03-30T18:02:22.418Z,76.30
2018-03-30T18:04:50.218Z,75.20
2018-03-30T18:07:17.299Z,75.10
2018-03-30T18:09:44.393Z,76.60
2018-03-30T18:12:11.452Z,75.00
2018-03-30T18:14:38.475Z,75.10
2018-03-30T18:17:06.293Z,76.50
2018-03-30T18:19:33.373Z,76.40
2018-03-30T18:22:00.476Z,78.70
2018-03-30T18:24:27.599Z,78.50
2018-03-30T18:26:55.396Z,78.30
2018-03-30T18:29:22.454Z,78.30
2018-03-30T18:31:49.573Z,79.80
2018-03-30T18:34:16.684Z,80.70
2018-03-30T18:36:44.492Z,81.10
2018-03-30T18:39:11.507Z,81.00
2018-03-30T18:41:38.537Z,80.70
2018-03-30T18:44:05.551Z,80.50
2018-03-30T18:46:32.597Z,76.80
2018-03-30T18:48:59.617Z,78.00
2018-03-30T18:51:26.637Z,77.10
2018-03-30T18:53:54.463Z,78.10
2018-03-30T18:56:21.513Z,77.40
2018-03-30T18:58:48.526Z,74.50
2018-03-30T19:01:15.598Z,78.00
2018-03-30T19:03:42.645Z,78.80
2018-03-30T19:06:09.663Z,78.10
2018-03-30T19:08:37.471Z,77.60
2018-03-30T19:11:04.504Z,77.50
2018-03-30T19:13:31.596Z,78.40
2018-03-30T19:15:58.616Z,80.20
2018-03-30T19:18:25.641Z,78.10
2018-03-30T19:20:52.703Z,80.00
2018-03-30T19:23:19.750Z,79.80
2018-03-30T19:25:46.794Z,79.00
2018-03-30T19:28:13.844Z,78.20
2018-03-30T19:30:40.876Z,77.80
2018-03-30T19:33:07.898Z,79.00
2018-03-30T19:35:35.698Z,78.80
2018-03-30T19:38:02.770Z,78.70
2018-03-30T19:40:29.830Z,77.70
2018-03-30T19:42:56.894Z,79.30
2018-03-30T19:45:23.974Z,79.30
2018-03-30T19:47:50.993Z,77.50
2018-03-30T19:50:18.819Z,81.30
2018-03-30T19:52:45.836Z,81.30
2018-03-30T19:55:12.930Z,80.90
2018-03-30T19:57:39.954Z,80.70
2018-03-30T20:00:07.205Z,80.40
2018-03-30T20:02:34.263Z,80.00
2018-03-30T20:05:01.289Z,78.90
2018-03-30T20:07:28.344Z,78.80
2018-03-30T20:09:55.477Z,78.90
2018-03-30T20:12:22.487Z,78.80
2018-03-30T20:14:49.569Z,78.90
2018-03-30T20:17:16.565Z,80.30
2018-03-30T20:19:43.606Z,79.80
2018-03-30T20:22:10.742Z,79.70
2018-03-30T20:24:37.725Z,80.10
2018-03-30T20:27:04.762Z,79.70
2018-03-30T20:29:31.776Z,79.30
2018-03-30T20:31:58.799Z,80.20
2018-03-30T20:34:26.592Z,79.20
2018-03-30T20:36:53.596Z,79.10
2018-03-30T20:39:21.414Z,80.10
2018-03-30T20:41:48.425Z,80.00
2018-03-30T20:44:15.540Z,79.20
2018-03-30T20:46:42.612Z,78.80
2018-03-30T20:49:10.369Z,79.00
2018-03-30T20:51:38.145Z,78.40
2018-03-30T20:54:05.905Z,78.10
2018-03-30T20:56:32.981Z,78.10
2018-03-30T20:58:59.995Z,78.50
2018-03-30T21:01:27.957Z,77.30
2018-03-30T21:03:55.749Z,78.70
2018-03-30T21:06:22.754Z,78.00
2018-03-30T21:08:49.744Z,77.90
2018-03-30T21:11:16.742Z,77.50
2018-03-30T21:13:45.250Z,77.80
2018-03-30T21:16:13.051Z,77.10
2018-03-30T21:18:40.119Z,77.00
2018-03-30T21:21:07.131Z,77.60
2018-03-30T21:23:34.161Z,77.00
2018-03-30T21:26:01.187Z,77.60
2018-03-30T21:28:28.195Z,76.60
2018-03-30T21:30:55.208Z,76.00
2018-03-30T21:33:22.209Z,77.20
2018-03-30T21:35:49.275Z,76.50
2018-03-30T21:38:16.289Z,76.20
2018-03-30T21:40:43.289Z,76.70
2018-03-30T21:43:11.050Z,77.40
2018-03-30T21:45:38.876Z,74.60
2018-03-30T21:48:05.864Z,74.60
2018-03-30T21:50:33.723Z,77.50
2018-03-30T21:53:00.715Z,77.40
2018-03-30T21:55:27.826Z,76.50
2018-03-30T21:57:54.843Z,78.40
2018-03-30T22:00:21.885Z,78.10
2018-03-30T22:02:48.912Z,77.30
2018-03-30T22:05:15.911Z,75.50
2018-03-30T22:07:43.697Z,76.50
2018-03-30T22:10:10.730Z,76.50
2018-03-30T22:12:38.476Z,75.70
2018-03-30T22:15:05.485Z,75.70
2018-03-30T22:17:32.500Z,77.20
2018-03-30T22:19:59.543Z,75.60
2018-03-30T22:22:27.328Z,75.20
2018-03-30T22:24:54.492Z,75.20
2018-03-30T22:27:21.440Z,77.70
2018-03-30T22:29:48.486Z,77.30
2018-03-30T22:32:15.494Z,77.10
2018-03-30T22:34:42.521Z,78.00
2018-03-30T22:37:09.554Z,79.60
2018-03-30T22:39:36.752Z,80.10
2018-03-30T22:42:03.833Z,79.40
2018-03-30T22:44:30.913Z,80.00
2018-03-30T22:46:57.930Z,79.50
2018-03-30T22:49:24.999Z,80.20
2018-03-30T22:51:52.030Z,80.30
2018-03-30T22:54:19.093Z,80.90
2018-03-30T22:56:46.121Z,79.60
2018-03-30T22:59:13.114Z,78.20
2018-03-30T23:01:40.894Z,78.30
2018-03-30T23:04:07.901Z,78.30
2018-03-30T23:06:34.929Z,79.40
2018-03-30T23:09:01.917Z,79.80
2018-03-30T23:11:28.963Z,80.00
2018-03-30T23:13:55.931Z,80.40
2018-03-30T23:16:22.969Z,81.00
2018-03-30T23:18:50.755Z,80.60
2018-03-30T23:21:17.749Z,80.50
2018-03-30T23:23:44.770Z,80.30
2018-03-30T23:26:11.784Z,80.60
2018-03-30T23:28:38.799Z,79.20
2018-03-30T23:31:05.776Z,79.90
2018-03-30T23:33:32.805Z,79.30
2018-03-30T23:35:59.845Z,79.10
2018-03-30T23:38:26.852Z,78.80
2018-03-30T23:40:53.855Z,79.20
2018-03-30T23:43:20.909Z,79.50
2018-03-30T23:45:47.993Z,79.30
2018-03-30T23:48:15.021Z,78.90
2018-03-30T23:50:42.033Z,78.60
2018-03-30T23:53:09.793Z,79.30
2018-03-30T23:55:37.615Z,78.80
2018-03-30T23:58:04.601Z,78.80
